Time;durP1;ratioP1;P1;durP2;ratioP2;P2;SDS_P1;SDS_P2;PMS_P1;PMS_P2;Temp;Humidity;BMP_temperature;BMP_pressure;BME280_temperature;BME280_humidity;BME280_pressure;Samples;Min_cycle;Max_cycle;Signal;HPM_P1;HPM_P2
2023/06/30 00:00:56;;;;;;;130.73;126.63;;;14.30;99.90;;;;;;4946022;28;20297;-82
2023/06/30 00:03:24;;;;;;;125.73;121.13;;;14.30;99.90;;;;;;4929488;28;20215;-81
2023/06/30 00:05:51;;;;;;;136.37;132.23;;;14.30;99.90;;;;;;4899333;29;20539;-81
2023/06/30 00:08:17;;;;;;;153.67;149.07;;;14.30;99.90;;;;;;4929665;29;20312;-82
2023/06/30 00:10:43;;;;;;;136.50;132.40;;;14.20;99.90;;;;;;4929525;29;20308;-81
2023/06/30 00:13:08;;;;;;;201.00;195.10;;;14.30;99.90;;;;;;4929616;29;20210;-81
2023/06/30 00:15:34;;;;;;;156.80;152.10;;;14.30;99.90;;;;;;4898104;29;20347;-82
2023/06/30 00:18:00;;;;;;;145.47;141.17;;;14.20;99.90;;;;;;4931414;28;20620;-81
2023/06/30 00:20:26;;;;;;;139.27;135.13;;;14.20;99.90;;;;;;4913804;29;20729;-80
2023/06/30 00:22:52;;;;;;;134.23;130.20;;;14.20;99.90;;;;;;4929083;29;20221;-81
2023/06/30 00:25:18;;;;;;;132.80;128.73;;;14.20;99.90;;;;;;4929017;29;20218;-82
2023/06/30 00:27:47;;;;;;;138.10;133.73;;;14.20;99.90;;;;;;4929381;29;20305;-81
2023/06/30 00:30:13;;;;;;;136.10;131.90;;;14.30;99.90;;;;;;4913927;28;20206;-81
2023/06/30 00:32:39;;;;;;;146.57;141.87;;;14.20;99.90;;;;;;4914014;29;20186;-80
2023/06/30 00:35:05;;;;;;;124.90;120.77;;;14.20;99.90;;;;;;4913543;29;20722;-82
2023/06/30 00:37:31;;;;;;;130.90;126.93;;;14.20;99.90;;;;;;4928799;29;20803;-82
2023/06/30 00:39:57;;;;;;;157.23;151.47;;;14.20;99.90;;;;;;4929002;29;20260;-82
2023/06/30 00:42:23;;;;;;;127.27;123.37;;;14.20;99.90;;;;;;4929552;28;20186;-82
2023/06/30 00:44:49;;;;;;;134.17;130.07;;;14.20;99.90;;;;;;4929212;29;20464;-82
2023/06/30 00:47:15;;;;;;;135.60;131.40;;;14.20;99.90;;;;;;4929304;29;20306;-82
2023/06/30 00:49:41;;;;;;;128.67;124.17;;;14.20;99.90;;;;;;4897652;29;20541;-82
2023/06/30 00:52:06;;;;;;;147.03;142.10;;;14.20;99.90;;;;;;4928846;29;20221;-82
2023/06/30 00:54:32;;;;;;;138.20;133.77;;;14.20;99.90;;;;;;4912862;29;20738;-83
2023/06/30 00:56:59;;;;;;;134.40;130.20;;;14.10;99.90;;;;;;4929555;29;20186;-82
2023/06/30 00:59:24;;;;;;;149.50;144.97;;;14.10;99.90;;;;;;4930091;28;20221;-83
2023/06/30 01:02:11;;;;;;;124.80;120.63;;;14.10;99.90;;;;;;4928697;29;20218;-83
2023/06/30 01:04:57;;;;;;;156.17;151.43;;;14.10;99.90;;;;;;4929710;28;20232;-80
2023/06/30 01:07:52;;;;;;;147.63;143.00;;;14.10;99.90;;;;;;4928482;29;20237;-81
2023/06/30 01:10:22;;;;;;;132.80;128.57;;;14.10;99.90;;;;;;4928128;29;20312;-81
2023/06/30 01:12:49;;;;;;;144.50;140.00;;;14.10;99.90;;;;;;4929838;28;20222;-82
2023/06/30 01:15:15;;;;;;;162.13;157.13;;;14.10;99.90;;;;;;4929499;28;20210;-81
2023/06/30 01:18:09;;;;;;;134.10;129.80;;;14.00;99.90;;;;;;4944957;29;20190;-81
2023/06/30 01:20:39;;;;;;;151.00;146.50;;;14.00;99.90;;;;;;4927616;29;20206;-82
2023/06/30 01:23:30;;;;;;;136.10;131.80;;;14.00;99.90;;;;;;4928543;28;20245;-81
2023/06/30 01:25:58;;;;;;;133.33;129.07;;;14.00;99.90;;;;;;4929288;28;20226;-81
2023/06/30 01:28:28;;;;;;;133.47;129.13;;;14.00;99.90;;;;;;4929336;28;20296;-81
2023/06/30 01:30:56;;;;;;;140.43;136.03;;;14.00;99.90;;;;;;4912887;29;20249;-81
2023/06/30 01:33:22;;;;;;;130.93;127.00;;;14.00;99.90;;;;;;4928248;28;20209;-81
2023/06/30 01:35:48;;;;;;;129.33;125.33;;;14.00;99.90;;;;;;4928609;29;20659;-80
2023/06/30 01:38:14;;;;;;;161.47;156.47;;;14.00;99.90;;;;;;4929508;28;20313;-81
2023/06/30 01:40:40;;;;;;;130.00;126.07;;;14.00;99.90;;;;;;4912345;29;20253;-81
2023/06/30 01:43:06;;;;;;;129.73;125.90;;;14.00;99.90;;;;;;4929576;28;20241;-81
2023/06/30 01:45:33;;;;;;;142.73;138.33;;;14.00;99.90;;;;;;4928222;29;20226;-81
2023/06/30 01:47:59;;;;;;;151.07;146.60;;;14.10;99.90;;;;;;4928865;29;20277;-81
2023/06/30 01:50:29;;;;;;;139.73;135.37;;;14.10;99.90;;;;;;4928096;29;20296;-82
2023/06/30 01:52:56;;;;;;;139.33;135.07;;;14.10;99.90;;;;;;4929238;28;20249;-81
2023/06/30 01:55:22;;;;;;;160.03;154.97;;;14.10;99.90;;;;;;4911906;29;20310;-81
2023/06/30 01:57:48;;;;;;;161.70;155.67;;;14.10;99.90;;;;;;4928061;29;20218;-82
2023/06/30 02:00:14;;;;;;;138.40;134.27;;;14.20;99.90;;;;;;4928064;28;20193;-81
2023/06/30 02:02:40;;;;;;;136.07;131.43;;;14.20;99.90;;;;;;4928480;29;20201;-81
2023/06/30 02:05:06;;;;;;;175.27;170.17;;;14.20;99.90;;;;;;4929218;28;20221;-81
2023/06/30 02:07:32;;;;;;;145.93;141.40;;;14.20;99.90;;;;;;4928820;28;20282;-82
2023/06/30 02:09:58;;;;;;;140.80;136.37;;;14.20;99.90;;;;;;4927964;28;20250;-81
2023/06/30 02:12:23;;;;;;;143.93;139.43;;;14.20;99.90;;;;;;4927560;28;20672;-81
2023/06/30 02:14:52;;;;;;;152.53;148.00;;;14.20;99.90;;;;;;4928483;29;20265;-82
2023/06/30 02:17:31;;;;;;;130.77;126.70;;;14.20;99.90;;;;;;4912655;29;20228;-82
2023/06/30 02:19:58;;;;;;;149.87;144.87;;;14.10;99.90;;;;;;4927981;29;20228;-82
2023/06/30 02:22:24;;;;;;;168.27;163.17;;;14.20;99.90;;;;;;4930298;29;20301;-82
2023/06/30 02:24:49;;;;;;;137.83;133.50;;;14.10;99.90;;;;;;4915659;29;20829;-82
2023/06/30 02:27:16;;;;;;;154.10;149.07;;;14.10;99.90;;;;;;4931774;28;20197;-81
2023/06/30 02:29:43;;;;;;;157.57;152.57;;;14.10;99.90;;;;;;4932532;29;20268;-80
2023/06/30 02:32:09;;;;;;;146.03;141.53;;;14.00;99.90;;;;;;4915763;29;20353;-81
2023/06/30 02:34:35;;;;;;;135.97;131.87;;;14.10;99.90;;;;;;4931494;29;20217;-81
2023/06/30 02:37:01;;;;;;;174.70;169.47;;;14.10;99.90;;;;;;4915665;29;20313;-81
2023/06/30 02:39:27;;;;;;;133.97;129.67;;;14.10;99.90;;;;;;4931506;28;20269;-81
2023/06/30 02:41:53;;;;;;;197.40;191.10;;;14.10;99.90;;;;;;4947981;29;20186;-81
2023/06/30 02:44:18;;;;;;;153.10;148.47;;;14.10;99.90;;;;;;4931485;29;20236;-82
2023/06/30 02:46:45;;;;;;;146.73;142.30;;;14.10;99.90;;;;;;4915673;29;20224;-82
2023/06/30 02:49:11;;;;;;;145.97;141.57;;;14.10;99.90;;;;;;4932602;28;20214;-82
2023/06/30 02:51:37;;;;;;;189.40;183.73;;;14.20;99.90;;;;;;4931164;29;20539;-81
2023/06/30 02:54:03;;;;;;;155.70;150.90;;;14.20;99.90;;;;;;4931939;29;20186;-81
2023/06/30 02:56:29;;;;;;;225.33;218.37;;;14.20;99.90;;;;;;4931057;29;20325;-83
2023/06/30 02:58:54;;;;;;;186.83;181.17;;;14.30;99.90;;;;;;4931101;28;20301;-80
2023/06/30 03:01:21;;;;;;;141.80;137.50;;;14.30;99.90;;;;;;4931020;29;20801;-81
2023/06/30 03:03:50;;;;;;;139.50;135.20;;;14.40;99.90;;;;;;4930717;29;20247;-81
2023/06/30 03:06:16;;;;;;;146.07;141.67;;;14.40;99.90;;;;;;4931932;28;20182;-82
2023/06/30 03:08:42;;;;;;;151.73;147.17;;;14.40;99.90;;;;;;4928332;29;20246;-82
2023/06/30 03:11:08;;;;;;;198.83;192.97;;;14.40;99.90;;;;;;4912611;29;20223;-81
2023/06/30 03:13:34;;;;;;;181.57;175.67;;;14.40;99.90;;;;;;4911356;29;20680;-81
2023/06/30 03:15:59;;;;;;;140.80;135.77;;;14.50;99.90;;;;;;4926759;29;20296;-82
2023/06/30 03:18:25;;;;;;;200.27;193.43;;;14.50;99.90;;;;;;4911800;29;20241;-81
2023/06/30 03:20:51;;;;;;;154.27;149.57;;;14.50;99.90;;;;;;4927994;29;20190;-81
2023/06/30 03:23:19;;;;;;;138.00;133.80;;;14.50;99.90;;;;;;4927490;29;20676;-83
2023/06/30 03:25:47;;;;;;;160.90;156.10;;;14.50;99.90;;;;;;4927296;29;20293;-83
2023/06/30 03:28:13;;;;;;;156.33;151.50;;;14.50;99.90;;;;;;4911569;29;20344;-82
2023/06/30 03:30:39;;;;;;;208.00;201.77;;;14.60;99.90;;;;;;4912974;29;20708;-82
2023/06/30 03:33:05;;;;;;;148.23;143.63;;;14.60;99.90;;;;;;4926461;29;20550;-81
2023/06/30 03:35:31;;;;;;;143.60;139.33;;;14.60;99.90;;;;;;4911731;29;20230;-82
2023/06/30 03:37:56;;;;;;;171.73;166.70;;;14.70;99.90;;;;;;4926566;28;20229;-82
2023/06/30 03:40:22;;;;;;;153.93;149.13;;;14.70;99.90;;;;;;4912211;29;20548;-82
2023/06/30 03:42:48;;;;;;;141.13;136.93;;;14.70;99.90;;;;;;4910890;29;20282;-81
2023/06/30 03:45:13;;;;;;;167.57;162.50;;;14.70;99.90;;;;;;4926504;29;20206;-82
2023/06/30 03:47:39;;;;;;;142.83;138.33;;;14.70;99.90;;;;;;4927269;29;20191;-82
2023/06/30 03:50:06;;;;;;;142.30;137.77;;;14.70;99.90;;;;;;4910591;29;20223;-82
2023/06/30 03:52:32;;;;;;;134.27;129.93;;;14.70;99.90;;;;;;4926766;29;20230;-82
2023/06/30 03:54:57;;;;;;;140.13;135.77;;;14.70;99.90;;;;;;4910770;29;20742;-82
2023/06/30 03:57:23;;;;;;;137.47;132.97;;;14.70;99.90;;;;;;4910623;29;20759;-83
2023/06/30 03:59:49;;;;;;;183.40;177.77;;;14.70;99.90;;;;;;4927444;29;20190;-82
2023/06/30 04:02:15;;;;;;;134.30;130.00;;;14.70;99.90;;;;;;4912093;29;20222;-82
2023/06/30 04:04:41;;;;;;;139.80;135.63;;;14.80;99.90;;;;;;4926891;29;20222;-82
2023/06/30 04:07:06;;;;;;;139.73;135.43;;;14.80;99.90;;;;;;4917091;28;20309;-82
2023/06/30 04:09:32;;;;;;;175.20;170.03;;;14.80;99.90;;;;;;4931048;28;20253;-82
2023/06/30 04:11:58;;;;;;;137.33;132.87;;;14.90;99.90;;;;;;4930470;29;20636;-83
2023/06/30 04:14:24;;;;;;;143.80;139.33;;;14.90;99.90;;;;;;4913875;29;20672;-82
2023/06/30 04:16:49;;;;;;;143.73;138.87;;;14.90;99.90;;;;;;4930755;28;20233;-82
2023/06/30 04:19:15;;;;;;;157.97;153.20;;;15.00;99.90;;;;;;4929462;29;20218;-82
2023/06/30 04:21:41;;;;;;;147.90;143.43;;;15.00;99.90;;;;;;4913847;29;20296;-82
2023/06/30 04:24:07;;;;;;;192.20;186.53;;;15.00;99.90;;;;;;4913665;28;20206;-82
2023/06/30 04:26:33;;;;;;;164.77;159.83;;;15.00;99.90;;;;;;4929913;29;20194;-81
2023/06/30 04:28:58;;;;;;;140.43;136.07;;;15.10;99.90;;;;;;4929384;29;20232;-82
2023/06/30 04:31:26;;;;;;;143.57;139.27;;;15.10;99.90;;;;;;4913512;29;20301;-82
2023/06/30 04:33:53;;;;;;;137.17;132.90;;;15.10;99.90;;;;;;4930073;28;20214;-82
2023/06/30 04:36:20;;;;;;;150.87;146.37;;;15.10;99.90;;;;;;4930367;28;20249;-82
2023/06/30 04:38:49;;;;;;;237.90;231.03;;;15.20;99.90;;;;;;4914304;29;20196;-82
2023/06/30 04:41:15;;;;;;;154.20;149.13;;;15.20;99.90;;;;;;4930268;28;20226;-82
2023/06/30 04:43:43;;;;;;;148.43;144.07;;;15.30;99.90;;;;;;4928987;29;20260;-82
2023/06/30 04:46:10;;;;;;;142.87;138.37;;;15.30;99.90;;;;;;4928915;29;20311;-82
2023/06/30 04:48:36;;;;;;;147.43;143.07;;;15.30;99.90;;;;;;4930312;28;20213;-82
2023/06/30 04:51:02;;;;;;;142.23;137.97;;;15.30;99.90;;;;;;4930287;29;20895;-82
2023/06/30 04:53:30;;;;;;;134.23;130.23;;;15.40;99.90;;;;;;4928670;29;20218;-83
2023/06/30 04:55:56;;;;;;;139.70;135.57;;;15.40;99.90;;;;;;4897222;29;20234;-82
2023/06/30 04:58:22;;;;;;;151.07;146.53;;;15.40;99.90;;;;;;4928615;29;20264;-82
2023/06/30 05:00:47;;;;;;;150.00;145.60;;;15.40;99.90;;;;;;4912865;29;20210;-82
2023/06/30 05:03:13;;;;;;;124.97;121.20;;;15.50;99.90;;;;;;4928714;28;20271;-82
2023/06/30 05:05:39;;;;;;;123.47;119.67;;;15.50;99.90;;;;;;4929088;29;20206;-82
2023/06/30 05:08:05;;;;;;;139.67;135.43;;;15.70;99.90;;;;;;4894494;29;20242;-82
2023/06/30 05:10:31;;;;;;;135.10;130.90;;;15.80;99.90;;;;;;4928753;29;20241;-82
2023/06/30 05:12:57;;;;;;;149.40;144.20;;;16.00;99.90;;;;;;4928419;29;20218;-82
2023/06/30 05:15:22;;;;;;;151.33;146.83;;;16.10;99.90;;;;;;4929582;28;20209;-82
2023/06/30 05:17:48;;;;;;;155.13;150.53;;;16.40;99.90;;;;;;4928458;29;20285;-81
2023/06/30 05:20:14;;;;;;;163.10;158.20;;;17.10;99.90;;;;;;4928374;29;20244;-81
2023/06/30 05:22:39;;;;;;;171.07;165.97;;;17.20;99.90;;;;;;4944396;28;20258;-82
2023/06/30 05:25:06;;;;;;;182.87;177.47;;;17.90;99.90;;;;;;4928146;29;20897;-82
2023/06/30 05:27:31;;;;;;;187.03;181.17;;;18.20;99.90;;;;;;4929339;28;20226;-82
2023/06/30 05:29:57;;;;;;;170.10;164.93;;;18.60;99.90;;;;;;4929790;29;20197;-82
2023/06/30 05:32:23;;;;;;;161.60;156.83;;;19.20;99.90;;;;;;4928592;29;20253;-81
2023/06/30 05:34:50;;;;;;;152.80;148.10;;;20.70;99.90;;;;;;4929763;28;20260;-81
2023/06/30 05:37:16;;;;;;;122.70;118.97;;;20.60;99.90;;;;;;4928254;28;20225;-82
2023/06/30 05:39:41;;;;;;;119.00;115.30;;;19.60;99.90;;;;;;4928552;29;20222;-82
2023/06/30 05:42:07;;;;;;;116.93;113.07;;;19.10;99.90;;;;;;4928256;28;20193;-82
2023/06/30 05:44:33;;;;;;;97.50;94.23;;;19.50;99.90;;;;;;4913043;29;20281;-82
2023/06/30 05:46:59;;;;;;;82.07;79.37;;;21.50;99.90;;;;;;4944195;28;20850;-82
2023/06/30 05:49:25;;;;;;;93.87;90.50;;;22.70;99.90;;;;;;4928423;29;20230;-81
2023/06/30 05:51:51;;;;;;;77.73;75.20;;;22.90;99.90;;;;;;4929527;28;20241;-82
2023/06/30 05:54:17;;;;;;;54.83;53.03;;;22.10;99.90;;;;;;4912601;28;20209;-82
2023/06/30 05:56:43;;;;;;;49.87;48.03;;;21.90;99.90;;;;;;4945901;28;20220;-83
2023/06/30 05:59:10;;;;;;;44.50;42.77;;;21.00;99.90;;;;;;4932925;28;20226;-82
2023/06/30 06:01:39;;;;;;;65.18;63.08;;;21.30;99.90;;;;;;4931922;29;20704;-83
2023/06/30 06:04:08;;;;;;;38.57;37.27;;;22.30;99.90;;;;;;4933067;28;20579;-82
2023/06/30 06:06:34;;;;;;;40.15;38.75;;;22.50;99.90;;;;;;4931974;29;20301;-81
2023/06/30 06:09:00;;;;;;;30.60;29.57;;;22.20;99.90;;;;;;4932345;29;20285;-82
2023/06/30 06:11:26;;;;;;;30.87;29.77;;;21.50;99.90;;;;;;4931816;29;20839;-81
2023/06/30 06:13:52;;;;;;;31.83;30.70;;;21.80;99.90;;;;;;4932607;28;20242;-81
2023/06/30 06:16:18;;;;;;;28.53;27.63;;;21.20;99.90;;;;;;4931818;29;20255;-82
2023/06/30 06:18:44;;;;;;;41.63;40.25;;;20.90;99.90;;;;;;4931658;29;20672;-82
2023/06/30 06:21:09;;;;;;;43.70;42.13;;;20.90;99.90;;;;;;4931791;28;20272;-82
2023/06/30 06:23:35;;;;;;;34.63;33.27;;;20.10;99.90;;;;;;4916146;29;20274;-81
2023/06/30 06:26:04;;;;;;;36.03;34.83;;;19.90;99.90;;;;;;4932846;28;20236;-81
2023/06/30 06:28:29;;;;;;;37.17;35.67;;;20.80;99.90;;;;;;4931595;29;20237;-81
2023/06/30 06:30:55;;;;;;;35.28;34.05;;;22.60;99.90;;;;;;4931129;29;20221;-81
2023/06/30 06:33:21;;;;;;;30.25;29.10;;;23.60;99.90;;;;;;4915602;28;20218;-81
2023/06/30 06:35:51;;;;;;;26.75;25.65;;;24.10;99.90;;;;;;4931946;29;20281;-81
2023/06/30 06:38:18;;;;;;;23.25;22.35;;;24.50;99.90;;;;;;4932698;28;20225;-82
2023/06/30 06:40:47;;;;;;;20.83;19.88;;;24.40;99.90;;;;;;4932733;28;20222;-81
2023/06/30 06:43:13;;;;;;;20.02;19.33;;;24.10;99.90;;;;;;4932427;28;20225;-81
2023/06/30 06:45:41;;;;;;;22.30;21.60;;;23.80;99.90;;;;;;4915285;29;20222;-81
2023/06/30 06:48:19;;;;;;;23.35;22.35;;;23.10;99.90;;;;;;4932634;28;20217;-81
2023/06/30 06:50:53;;;;;;;19.85;18.92;;;22.40;99.90;;;;;;4931946;29;20217;-82
2023/06/30 06:53:37;;;;;;;23.33;22.52;;;21.70;99.90;;;;;;4931079;29;20244;-81
2023/06/30 06:56:04;;;;;;;22.65;21.77;;;21.10;99.90;;;;;;4932160;28;20265;-81
2023/06/30 06:58:32;;;;;;;28.85;27.85;;;20.90;99.90;;;;;;4931014;29;20610;-81
2023/06/30 07:00:58;;;;;;;27.75;26.77;;;21.50;99.90;;;;;;4932055;28;20743;-81
2023/06/30 07:03:23;;;;;;;23.92;23.13;;;22.40;99.90;;;;;;4915220;28;20281;-81
2023/06/30 07:05:49;;;;;;;24.52;23.63;;;23.40;99.90;;;;;;4933034;28;20201;-82
2023/06/30 07:08:16;;;;;;;28.65;27.50;;;24.20;99.90;;;;;;4930662;28;20329;-82
2023/06/30 07:10:46;;;;;;;29.33;28.33;;;25.00;99.90;;;;;;4930936;29;20229;-83
2023/06/30 07:13:15;;;;;;;17.17;15.95;;;24.60;99.90;;;;;;4930613;29;20284;-83
2023/06/30 07:15:41;;;;;;;16.88;16.30;;;24.90;99.90;;;;;;4931746;28;20597;-82
2023/06/30 07:18:06;;;;;;;14.90;14.13;;;23.80;99.90;;;;;;4914790;28;20179;-82
2023/06/30 07:20:32;;;;;;;15.02;14.48;;;23.60;99.90;;;;;;4931555;29;20183;-82
2023/06/30 07:22:58;;;;;;;17.05;16.45;;;23.60;99.90;;;;;;4930737;29;20241;-82
2023/06/30 07:25:25;;;;;;;18.52;17.58;;;23.90;99.90;;;;;;4932081;28;20244;-81
2023/06/30 07:27:53;;;;;;;16.98;16.38;;;23.00;99.90;;;;;;4930615;29;20667;-81
2023/06/30 07:30:24;;;;;;;21.52;20.83;;;24.10;99.90;;;;;;4930465;28;20799;-82
2023/06/30 07:32:50;;;;;;;17.23;16.33;;;24.80;99.90;;;;;;4947341;29;20181;-82
2023/06/30 07:35:18;;;;;;;12.70;12.23;;;24.80;99.90;;;;;;4930622;28;20254;-82
2023/06/30 07:37:45;;;;;;;14.07;13.48;;;26.00;99.90;;;;;;4930602;29;20260;-82
2023/06/30 07:40:11;;;;;;;12.85;12.15;;;26.60;99.90;;;;;;4931459;28;20222;-81
2023/06/30 07:42:38;;;;;;;13.38;12.75;;;26.10;99.90;;;;;;4930388;29;20630;-82
2023/06/30 07:45:15;;;;;;;11.27;10.60;;;25.70;99.90;;;;;;4915006;29;20186;-82
2023/06/30 07:47:45;;;;;;;10.98;9.95;;;25.50;99.90;;;;;;4931903;29;20210;-82
2023/06/30 07:50:13;;;;;;;10.90;10.00;;;25.60;99.90;;;;;;4931400;28;20300;-82
2023/06/30 07:52:43;;;;;;;10.05;9.75;;;25.80;99.90;;;;;;4930353;29;20244;-83
2023/06/30 07:55:10;;;;;;;10.65;10.15;;;25.50;99.90;;;;;;4929988;28;20234;-83
2023/06/30 07:57:36;;;;;;;10.63;10.05;;;26.10;99.90;;;;;;4931382;28;20265;-82
2023/06/30 08:00:03;;;;;;;11.13;10.80;;;26.00;99.90;;;;;;4930366;29;20625;-82
2023/06/30 08:02:28;;;;;;;9.75;9.45;;;26.00;99.90;;;;;;4930135;29;20234;-82
2023/06/30 08:04:54;;;;;;;10.85;10.45;;;25.60;99.90;;;;;;4929775;29;20706;-83
2023/06/30 08:07:20;;;;;;;11.50;10.98;;;25.10;99.90;;;;;;4913700;29;20241;-82
2023/06/30 08:09:48;;;;;;;13.32;12.75;;;25.30;99.90;;;;;;4929884;29;20311;-82
2023/06/30 08:12:14;;;;;;;11.50;11.10;;;25.60;99.90;;;;;;4898497;28;20174;-82
2023/06/30 08:14:40;;;;;;;10.25;9.90;;;25.10;99.90;;;;;;4929971;29;20821;-81
2023/06/30 08:17:06;;;;;;;11.98;11.57;;;25.20;99.90;;;;;;4929489;29;20236;-81
2023/06/30 08:19:31;;;;;;;12.25;11.65;;;24.70;99.90;;;;;;4913061;29;20859;-83
2023/06/30 08:21:57;;;;;;;10.50;10.10;;;25.70;99.90;;;;;;4913799;29;20759;-82
2023/06/30 08:24:23;;;;;;;10.63;10.23;;;25.80;99.90;;;;;;4930930;28;20249;-82
2023/06/30 08:26:49;;;;;;;11.63;11.02;;;25.80;99.90;;;;;;4930131;29;20200;-83
2023/06/30 08:29:15;;;;;;;11.50;10.80;;;25.30;99.90;;;;;;4929257;29;20241;-82
2023/06/30 08:31:40;;;;;;;13.55;12.98;;;24.50;99.90;;;;;;4913454;29;20757;-82
2023/06/30 08:34:08;;;;;;;11.38;10.98;;;26.00;99.90;;;;;;4929359;29;20305;-82
2023/06/30 08:36:34;;;;;;;11.70;11.20;;;26.50;99.90;;;;;;4930551;28;20237;-82
2023/06/30 08:39:00;;;;;;;11.63;11.23;;;27.10;99.90;;;;;;4930018;29;20194;-81
2023/06/30 08:41:27;;;;;;;10.75;10.15;;;26.60;99.90;;;;;;4929563;29;20213;-82
2023/06/30 08:43:55;;;;;;;13.38;12.90;;;27.60;99.90;;;;;;4913548;29;20230;-82
2023/06/30 08:46:24;;;;;;;10.75;10.35;;;26.70;99.90;;;;;;4930394;28;20836;-82
2023/06/30 08:48:50;;;;;;;11.15;10.75;;;26.80;99.90;;;;;;4930302;28;20578;-83
2023/06/30 08:51:18;;;;;;;10.38;9.90;;;25.70;99.90;;;;;;4913285;28;20186;-82
2023/06/30 08:53:46;;;;;;;11.85;11.35;;;26.00;99.90;;;;;;4929246;29;20659;-83
2023/06/30 08:56:14;;;;;;;10.48;10.07;;;26.60;99.90;;;;;;4931030;28;20236;-82
2023/06/30 08:58:39;;;;;;;11.30;10.75;;;27.30;99.90;;;;;;4913619;29;20563;-81
2023/06/30 09:01:06;;;;;;;13.82;13.23;;;27.70;99.90;;;;;;4928708;29;20261;-81
2023/06/30 09:03:33;;;;;;;13.90;13.38;;;26.80;99.90;;;;;;4928886;29;20306;-82
2023/06/30 09:05:59;;;;;;;9.82;9.43;;;26.40;99.90;;;;;;4914081;29;20275;-82
2023/06/30 09:08:40;;;;;;;11.75;11.10;;;26.10;99.90;;;;;;4929862;28;20317;-81
2023/06/30 09:11:08;;;;;;;11.98;11.57;;;26.90;99.90;;;;;;4928847;29;20301;-81
2023/06/30 09:13:37;;;;;;;12.50;12.07;;;27.10;99.90;;;;;;4913401;29;20239;-82
2023/06/30 09:16:06;;;;;;;11.88;11.27;;;25.00;99.90;;;;;;4929814;28;20261;-81
2023/06/30 09:18:33;;;;;;;13.20;12.55;;;24.10;99.90;;;;;;4928910;29;20284;-83
2023/06/30 09:20:59;;;;;;;12.88;12.23;;;25.60;99.90;;;;;;4913296;29;20178;-82
2023/06/30 09:23:27;;;;;;;14.13;13.40;;;27.90;99.90;;;;;;4912919;29;20222;-83
2023/06/30 09:25:53;;;;;;;10.90;10.40;;;27.30;99.90;;;;;;4929994;28;20276;-82
2023/06/30 09:28:19;;;;;;;12.35;11.75;;;26.80;99.90;;;;;;4929821;28;20229;-81
2023/06/30 09:30:46;;;;;;;12.45;11.95;;;26.20;99.90;;;;;;4928060;29;20615;-82
2023/06/30 09:33:16;;;;;;;12.55;12.15;;;25.20;99.90;;;;;;4928292;28;20790;-83
2023/06/30 09:35:44;;;;;;;12.45;11.65;;;25.50;99.90;;;;;;4944738;29;20213;-82
2023/06/30 09:38:11;;;;;;;22.27;21.45;;;25.20;99.90;;;;;;4929733;28;20248;-82
2023/06/30 09:40:37;;;;;;;13.90;13.25;;;25.00;99.90;;;;;;4929630;28;20602;-82
2023/06/30 09:43:05;;;;;;;13.05;12.55;;;25.00;99.90;;;;;;4928164;29;20226;-82
2023/06/30 09:45:30;;;;;;;12.20;11.70;;;26.00;99.90;;;;;;4928385;29;20982;-81
2023/06/30 09:47:56;;;;;;;14.15;13.38;;;26.80;99.90;;;;;;4913066;29;20174;-82
2023/06/30 09:50:30;;;;;;;12.10;11.70;;;26.70;99.90;;;;;;4912679;29;20241;-82
2023/06/30 09:52:56;;;;;;;11.93;11.52;;;26.30;99.90;;;;;;4928413;28;20669;-81
2023/06/30 09:55:21;;;;;;;14.55;13.98;;;25.20;99.90;;;;;;4929764;28;20406;-82
2023/06/30 09:57:47;;;;;;;14.20;13.63;;;23.90;99.90;;;;;;4912269;29;20218;-81
2023/06/30 10:00:16;;;;;;;13.25;12.75;;;24.60;99.90;;;;;;4912340;28;20184;-81
2023/06/30 10:02:43;;;;;;;13.27;12.77;;;25.40;99.90;;;;;;4929150;29;20252;-81
2023/06/30 10:05:09;;;;;;;13.40;12.70;;;26.00;99.90;;;;;;4929102;28;20226;-80
2023/06/30 10:07:36;;;;;;;12.23;11.43;;;26.10;99.90;;;;;;4896629;29;20252;-81
2023/06/30 10:10:04;;;;;;;13.38;12.82;;;25.70;99.90;;;;;;4928484;29;20257;-82
2023/06/30 10:12:35;;;;;;;11.80;11.40;;;24.90;99.90;;;;;;4928159;28;20229;-81
2023/06/30 10:15:02;;;;;;;12.75;12.25;;;24.50;99.90;;;;;;4928864;29;20202;-81
2023/06/30 10:17:29;;;;;;;17.40;16.70;;;24.10;99.90;;;;;;4929253;28;20590;-80
2023/06/30 10:19:56;;;;;;;14.80;14.10;;;22.90;99.90;;;;;;4928395;29;20708;-80
2023/06/30 10:22:21;;;;;;;18.08;17.38;;;22.50;99.90;;;;;;4927944;29;20225;-81
2023/06/30 10:24:49;;;;;;;28.00;26.98;;;22.90;99.90;;;;;;4928110;29;20363;-81
2023/06/30 10:27:18;;;;;;;15.38;14.65;;;23.80;99.90;;;;;;4928815;28;20182;-81
2023/06/30 10:29:45;;;;;;;14.27;13.77;;;24.30;99.90;;;;;;4929509;29;20707;-82
2023/06/30 10:32:11;;;;;;;21.48;20.58;;;24.00;99.90;;;;;;4928604;28;20262;-82
2023/06/30 10:34:38;;;;;;;16.40;15.82;;;24.00;99.90;;;;;;4927617;29;20246;-81
2023/06/30 10:37:04;;;;;;;16.98;16.35;;;24.20;99.90;;;;;;4929046;28;20583;-82
2023/06/30 10:39:30;;;;;;;19.58;18.95;;;23.60;99.90;;;;;;4927656;29;20309;-80
2023/06/30 10:41:59;;;;;;;16.98;16.30;;;24.40;99.90;;;;;;4929529;29;20198;-82
2023/06/30 10:44:43;;;;;;;14.60;14.02;;;24.20;99.90;;;;;;4915972;29;20262;-82
2023/06/30 10:47:10;;;;;;;12.60;12.20;;;24.60;99.90;;;;;;4931458;29;20225;-83
2023/06/30 10:49:38;;;;;;;14.93;14.32;;;24.80;99.90;;;;;;4931562;29;20796;-82
2023/06/30 10:52:08;;;;;;;25.60;24.67;;;24.90;99.90;;;;;;4931400;29;20214;-83
2023/06/30 10:54:47;;;;;;;13.20;12.68;;;24.60;99.90;;;;;;4932477;28;20679;-82
2023/06/30 10:57:17;;;;;;;13.55;13.05;;;24.50;99.90;;;;;;4947408;28;20202;-82
2023/06/30 10:59:45;;;;;;;13.27;12.63;;;24.10;99.90;;;;;;4931670;29;20182;-83
2023/06/30 11:02:12;;;;;;;14.57;13.93;;;24.40;99.90;;;;;;4931012;28;20296;-82
2023/06/30 11:04:38;;;;;;;15.05;14.55;;;24.20;99.90;;;;;;4932369;28;20233;-81
2023/06/30 11:07:06;;;;;;;14.05;13.50;;;24.30;99.90;;;;;;4930925;29;20263;-82
2023/06/30 11:09:52;;;;;;;14.00;13.40;;;24.00;99.90;;;;;;4930871;29;20240;-82
2023/06/30 11:12:25;;;;;;;16.88;15.43;;;23.50;99.90;;;;;;4923552;28;20236;-82
2023/06/30 11:15:01;;;;;;;13.65;13.05;;;23.50;99.90;;;;;;4931851;29;20181;-82
2023/06/30 11:17:48;;;;;;;26.90;25.98;;;22.80;99.90;;;;;;4931912;28;20404;-83
2023/06/30 11:20:17;;;;;;;16.40;15.63;;;22.70;99.90;;;;;;4930406;29;20822;-83
2023/06/30 11:23:05;;;;;;;15.32;14.52;;;22.80;99.90;;;;;;4931516;29;20382;-86
2023/06/30 11:25:33;;;;;;;16.10;15.50;;;23.30;99.90;;;;;;4946819;28;20233;-86
2023/06/30 11:28:01;;;;;;;14.77;14.07;;;23.30;99.90;;;;;;4930956;29;20218;-85
2023/06/30 11:30:33;;;;;;;14.65;13.82;;;23.40;99.90;;;;;;4931042;28;20229;-86
2023/06/30 11:32:59;;;;;;;18.38;17.70;;;22.90;99.90;;;;;;4931564;29;20170;-85
2023/06/30 11:35:26;;;;;;;14.07;13.50;;;22.80;99.90;;;;;;4930793;29;20234;-85
2023/06/30 11:37:53;;;;;;;14.00;13.50;;;22.70;99.90;;;;;;4932342;28;20252;-85
2023/06/30 11:40:21;;;;;;;20.00;19.27;;;22.30;99.90;;;;;;4930264;29;20210;-85
2023/06/30 11:42:48;;;;;;;15.25;14.63;;;22.70;99.90;;;;;;4946825;28;20237;-85
2023/06/30 11:45:20;;;;;;;14.02;13.10;;;23.10;99.90;;;;;;4930646;28;20185;-84
2023/06/30 11:47:49;;;;;;;33.72;32.50;;;23.60;99.90;;;;;;4931519;29;20242;-85
2023/06/30 11:50:15;;;;;;;12.38;11.88;;;23.40;99.90;;;;;;4930487;29;20247;-85
2023/06/30 11:52:48;;;;;;;17.05;14.25;;;23.50;99.90;;;;;;4931679;28;20277;-85
2023/06/30 11:55:14;;;;;;;12.50;11.55;;;23.30;99.90;;;;;;4929716;29;20272;-85
2023/06/30 11:57:42;;;;;;;12.13;11.65;;;23.10;99.90;;;;;;4931877;28;20222;-83
2023/06/30 12:00:19;;;;;;;10.27;9.98;;;22.70;99.90;;;;;;4930373;28;20538;-84
2023/06/30 12:02:47;;;;;;;10.52;9.68;;;23.30;99.90;;;;;;4931533;29;20171;-82
2023/06/30 12:05:17;;;;;;;9.43;9.13;;;24.00;99.90;;;;;;4922285;28;20478;-81
2023/06/30 12:07:46;;;;;;;8.68;8.27;;;24.30;99.90;;;;;;4929968;29;20329;-81
2023/06/30 12:10:13;;;;;;;12.60;12.10;;;24.00;99.90;;;;;;4914188;29;20259;-81
2023/06/30 12:12:39;;;;;;;11.65;11.25;;;24.10;99.90;;;;;;4930117;29;20265;-81
2023/06/30 12:15:08;;;;;;;12.98;12.48;;;24.00;99.90;;;;;;4914678;29;20217;-82
2023/06/30 12:17:39;;;;;;;14.50;13.68;;;23.50;99.90;;;;;;4931341;28;20214;-82
2023/06/30 12:20:07;;;;;;;11.23;10.75;;;23.10;99.90;;;;;;4929969;28;20877;-81